Reklama
Líbí se Vám tento web? Budeme velmi rádi, pokud přidáte hodnocení +1

Seznam meteostanic a jejich METAR

Vyhledat místa podle abecedy:
A B C D E F G H I J K L M N O P Q R S T U V W X Y Z

Filtrovat:

ID stanice:
a/nebo
Název místa (fulltext):
 
Místo (ID)Naposledy načteno 
Milešovka (Milesovka) 21.06.2018 02:00 UTC Zobrazit data
Místo: Milešovka
Teplota: 18 °C (pocitová: 15.3 °C)
Vítr: 8 m/s z(e) 260°
Počasí: skorojasno
Dohlednost: 55 km
Zákl. oblačnosti: 2/8 2400 m
Vlhkost: 73%
Mošnov (Ostrava/Mo) 21.06.2018 02:00 UTC Zobrazit data
Místo: Mošnov
Teplota: 16 °C (pocitová: 14.6 °C)
Vítr: 2 m/s z(e) 210°
Počasí: oblačno
Dohlednost: 20 km
Zákl. oblačnosti: 4/8 2100 m
Vlhkost: 100%
Macau (VMMC) 21.06.2018 02:00 UTC Zobrazit METAR
VMMC 210200Z 20011KT 9999 FEW015 SCT025 30/27 Q1007 NOSIG
Madeira (LPMA) 21.06.2018 02:00 UTC Zobrazit METAR
LPMA 210200Z 36008G18KT 250V040 9999 SCT015 19/15 Q1019
Madrid (LETO) 21.06.2018 02:00 UTC Zobrazit METAR
LETO 210200Z VRB02KT CAVOK 23/11 Q1019 NOSIG
Majuro Atoll (PKMA) Zatím nenačteno  
Malabo (FGSL) 21.06.2018 02:00 UTC Zobrazit METAR
FGSL 210200Z 23006KT 9999 FEW010 22/20 Q1014 NOSIG
Malaga (LEMG) 21.06.2018 02:00 UTC Zobrazit METAR
LEMG 210200Z 27006KT CAVOK 21/16 Q1017 NOSIG
Male (VRMM) 21.06.2018 02:00 UTC Zobrazit METAR
VRMM 210200Z 22011KT 9999 FEW018 BKN270 29/24 Q1011 NOSIG
Malmo (ESMS) 21.06.2018 01:50 UTC Zobrazit METAR
ESMS 210150Z 25011KT 9999 FEW014 BKN038 17/15 Q1009
Malta (LMML) 21.06.2018 01:45 UTC Zobrazit METAR
LMML 210145Z 05004KT 9999 FEW011 21/19 Q1017 NOSIG
Managua (MNMG) 20.06.2018 19:00 UTC Zobrazit METAR
MNMG 201900Z 11006KT 9999 FEW022 31/23 Q1009 A2982 NOSIG
Manchester (EGCC) 20.06.2018 23:50 UTC Zobrazit METAR
EGCC 202350Z AUTO 24006KT 9999 SCT039 10/06 Q1022 NOSIG
Manila (RPLL) 21.06.2018 02:00 UTC Zobrazit METAR
RPLL 210200Z 25008KT 230V350 9999 FEW025 30/28 Q1011 NOSIG RMK A2985
Manzini (FDMS) 20.06.2018 17:00 UTC Zobrazit METAR
FDMS 201700Z 36004KT 9999 BKN030 16/11 Q1027 NOSIG
Maputo (FQMA) 21.06.2018 02:00 UTC Zobrazit METAR
FQMA 210200Z 25003KT CAVOK 16/14 Q1025 NOSIG
Maribor (LJMB) 20.06.2018 20:00 UTC Zobrazit METAR
LJMB 202000Z 20002KT CAVOK 22/17 Q1020
Marrakech (GMMX) 21.06.2018 02:00 UTC Zobrazit METAR
GMMX 210200Z 23006KT CAVOK 18/14 Q1017 NOSIG
Maseru (FXMM) 16.06.2018 10:00 UTC Zobrazit METAR
FXMM 161000Z 19006KT CAVOK 10/M01 Q1026 NOSIG
Mauritius (FIMP) 21.06.2018 02:00 UTC Zobrazit METAR
FIMP 210200Z 33003KT 9999 VCSH BKN014 22/20 Q1020
Melilla (GEML) 21.06.2018 02:00 UTC Zobrazit METAR
GEML 210200Z AUTO 35003KT 310V070 9999 BKN013/// OVC018/// 21/19 Q1016
Mexico City (MMMX) 21.06.2018 00:50 UTC Zobrazit METAR
MMMX 210050Z 12008G18KT 8SM SCT020 BKN080 BKN200 18/09 A3024 TEMPO 6SM RA RMK 8/438 HZY TCU 2ND AND 4TH QUAD
Midway Atoll, Sand Island (PMDY) 21.06.2018 01:56 UTC Zobrazit METAR
PMDY 210156Z AUTO 01009KT 10SM SCT023 OVC035 26/19 A3006 RMK AO2 SLP180 T02560194
Milan (LIMC) 21.06.2018 01:50 UTC Zobrazit METAR
LIMC 210150Z 36007KT 9999 BKN090 20/18 Q1018 NOSIG
Minsk (UMMM) 11.07.2016 14:00 UTC Zobrazit METAR
UMMM 111400Z ///// //// BKN040 BKN200 28/16 Q1009 NOSIG RMK QFE738
Mitilini (LGMT) 21.06.2018 01:50 UTC Zobrazit METAR
LGMT 210150Z 00000KT 9999 FEW025 22/18 Q1014
Mogadishu (HCMM) 20.06.2018 13:00 UTC Zobrazit METAR
HCMM 201300Z 24010KT 9999 FEW028 28/24 Q1012
Monrovia (GLRB) 20.06.2018 14:00 UTC Zobrazit METAR
GLRB 201400Z 23012KT 9999 BKN018 29/24 Q1015 NOSIG
Montevideo (SUMU) 21.06.2018 02:00 UTC Zobrazit METAR
SUMU 210200Z 36007KT CAVOK 16/14 Q1011 NOSIG
Montpellier/ Mediterranee (LFMT) 21.06.2018 02:00 UTC Zobrazit METAR
LFMT 210200Z AUTO 36004KT 340V040 CAVOK 20/17 Q1017 NOSIG
Moscow (UUEE) Zatím nenačteno  
Mostar (LQMO) 21.06.2018 02:00 UTC Zobrazit METAR
LQMO 210200Z VRB02KT CAVOK 19/17 Q1016
Mount Pleasant (EGYP) 21.06.2018 01:50 UTC Zobrazit METAR
EGYP 210150Z 29018KT CAVOK 04/M01 Q0979 BLU
Munich (EDDM) 21.06.2018 01:50 UTC Zobrazit METAR
EDDM 210150Z 00000KT CAVOK 13/12 Q1018 NOSIG
Muscat (OOMS) 21.06.2018 01:50 UTC Zobrazit METAR
OOMS 210150Z 21017KT 7000 NSC 38/17 Q0999 NOSIG
Reklama

Počasí na Váš email

Emaily jsou bez reklamy a bez spamu



Odhlásit newsletter

Reklama


Lunární kalendář

  • 28.06.
  • 06.07.
  • 13.07.
  • 19.07.



Slunečno.cz na Google+

Reklama


Reklama
Povinné ručení
Reklama




Reklama